Friday, April 20, 2018, 10:43 AM GMT
Back to Local

CXMY, Malay Falls , N. S.

Location: , , Canada Lat: 44.983
Local Time: 10:43 AM GMT (10:43 GMT) Lon: -62.483
Time Zone: GMT Elev: 131 ft

Show me the last for .
Show Coded

Time T Td Feel RH Dir Speed Gust Alt SLP Vis Weather Sky Remarks
2018-04-20 10:00 35 35 - 97 - - - - - 0 None
2018-04-20 09:00 35 33 - 91 - - - - - 0 None
2018-04-20 08:00 35 35 - 99 - - - - - 0 1-hr Precip Total: 0.05"
2018-04-20 07:00 36 35 - 99 - - - - - 0 None
2018-04-20 06:00 35 35 - 98 - - - - - 0 None
2018-04-20 05:00 33 34 - 105 - - - - - 0 1-hr Precip Total: 0.03"
2018-04-20 04:00 35 34 - 99 - - - - - 0 None
2018-04-20 03:00 34 34 - 100 - - - - - 0 1-hr Precip Total: 0.04"
2018-04-20 02:00 34 34 - 99 - - - - - 0 1-hr Precip Total: 0.17"
2018-04-20 01:00 37 35 - 91 - - - - - 0 1-hr Precip Total: 0.03"
2018-04-20 00:00 37 37 - 98 - - - - - 0 None
2018-04-19 23:00 37 37 - 97 - - - - - 0 None
2018-04-19 22:00 38 37 - 96 - - - - - 0 None
2018-04-19 21:00 39 38 - 94 - - - - - 0 None
2018-04-19 20:00 44 37 - 76 - - - - - 0 None
2018-04-19 19:00 46 39 - 77 - - - - - 0 None
2018-04-19 18:00 48 41 - 74 - - - - - 0 None
2018-04-19 17:00 50 43 - 77 - - - - - 0 None
2018-04-19 16:00 50 40 - 67 - - - - - 0 None
2018-04-19 15:00 48 38 - 68 - - - - - 0 None
2018-04-19 14:00 43 39 - 84 - - - - - 0 None
2018-04-19 13:00 42 39 - 87 - - - - - 0 1-hr Precip Total: 0.03"
2018-04-19 12:00 43 40 - 88 - - - - - 0 None
2018-04-19 11:00 39 38 - 97 - - - - - 0 None

Support USWX by starting your Amazon purchase here.